PTVZE GLRB-GVAC
Flight info
| Callsign | PTVZE |
|---|---|
| Flight time | 2h 12m |
| Altitude | 44000 |
| Route | ROB UB600 GIA UM244 AKDAK UG853 TURED UA602 OPADU DCT TOBIK BIRAP1F |
| Aircraft | C750/M-SBDE3FGHRWXY/S |
Departure
| Time | 2026-04-26 12:23 |
|---|---|
| Airport | Roberts International Airport (GLRB) |
Arrival
| Time | 2026-04-26 14:35 |
|---|---|
| Airport | Amílcar Cabral International Airport (GVAC) |
| Time | Latitude | Longitude | Altitude | Speed | Heading |
|---|---|---|---|---|---|
| 2026-04-26 12:11 | 6.24165 | -10.35448 | 30 ft | 0 kts | 105° |
| 2026-04-26 12:17 | 6.24161 | -10.35441 | 30 ft | 2 kts | 132° |
| 2026-04-26 12:18 | 6.24151 | -10.35442 | 30 ft | 5 kts | 185° |
| 2026-04-26 12:18 | 6.24093 | -10.35474 | 31 ft | 11 kts | 211° |
| 2026-04-26 12:18 | 6.24043 | -10.35521 | 31 ft | 10 kts | 248° |
| 2026-04-26 12:18 | 6.24005 | -10.35593 | 31 ft | 13 kts | 213° |
| 2026-04-26 12:19 | 6.23935 | -10.35652 | 32 ft | 11 kts | 272° |
| 2026-04-26 12:19 | 6.23965 | -10.35708 | 33 ft | 11 kts | 301° |
| 2026-04-26 12:19 | 6.24019 | -10.35800 | 33 ft | 17 kts | 300° |
| 2026-04-26 12:19 | 6.24013 | -10.35860 | 34 ft | 9 kts | 212° |
| 2026-04-26 12:20 | 6.23928 | -10.35905 | 35 ft | 22 kts | 211° |
| 2026-04-26 12:20 | 6.23732 | -10.36026 | 32 ft | 45 kts | 211° |
| 2026-04-26 12:20 | 6.23401 | -10.36224 | 29 ft | 62 kts | 211° |
| 2026-04-26 12:20 | 6.23042 | -10.36440 | 33 ft | 56 kts | 211° |
| 2026-04-26 12:21 | 6.22755 | -10.36613 | 37 ft | 42 kts | 211° |
| 2026-04-26 12:21 | 6.22538 | -10.36744 | 34 ft | 32 kts | 211° |
| 2026-04-26 12:21 | 6.22354 | -10.36852 | 33 ft | 30 kts | 211° |
| 2026-04-26 12:21 | 6.22198 | -10.36944 | 32 ft | 13 kts | 196° |
| 2026-04-26 12:22 | 6.22105 | -10.36946 | 34 ft | 16 kts | 182° |
| 2026-04-26 12:22 | 6.22066 | -10.36981 | 34 ft | 6 kts | 278° |
| 2026-04-26 12:22 | 6.22108 | -10.37006 | 34 ft | 7 kts | 47° |
| 2026-04-26 12:22 | 6.22201 | -10.36945 | 32 ft | 39 kts | 32° |
| 2026-04-26 12:23 | 6.22757 | -10.36608 | 37 ft | 141 kts | 30° |
| 2026-04-26 12:23 | 6.23704 | -10.36035 | 408 ft | 161 kts | 31° |
| 2026-04-26 12:23 | 6.24540 | -10.35460 | 1490 ft | 133 kts | 36° |
| 2026-04-26 12:23 | 6.25407 | -10.35022 | 2008 ft | 155 kts | 12° |
| 2026-04-26 12:24 | 6.26576 | -10.35047 | 2269 ft | 184 kts | 347° |
| 2026-04-26 12:24 | 6.27709 | -10.35680 | 2915 ft | 187 kts | 317° |
| 2026-04-26 12:24 | 6.28624 | -10.36603 | 3626 ft | 193 kts | 314° |
| 2026-04-26 12:25 | 6.30797 | -10.38752 | 4668 ft | 244 kts | 316° |
| 2026-04-26 12:25 | 6.32062 | -10.40013 | 5101 ft | 269 kts | 316° |
| 2026-04-26 12:25 | 6.33435 | -10.41386 | 5682 ft | 283 kts | 316° |
| 2026-04-26 12:25 | 6.34826 | -10.42775 | 6592 ft | 284 kts | 317° |
| 2026-04-26 12:26 | 6.36247 | -10.44191 | 7424 ft | 289 kts | 317° |
| 2026-04-26 12:26 | 6.37682 | -10.45624 | 8408 ft | 292 kts | 317° |
| 2026-04-26 12:26 | 6.39136 | -10.47076 | 9344 ft | 297 kts | 318° |
| 2026-04-26 12:26 | 6.40616 | -10.48552 | 10159 ft | 303 kts | 318° |
| 2026-04-26 12:27 | 6.42170 | -10.50099 | 10422 ft | 328 kts | 318° |
| 2026-04-26 12:27 | 6.43861 | -10.51783 | 10492 ft | 356 kts | 318° |
| 2026-04-26 12:27 | 6.45658 | -10.53584 | 10944 ft | 367 kts | 317° |
| 2026-04-26 12:27 | 6.47469 | -10.55401 | 11694 ft | 369 kts | 318° |
| 2026-04-26 12:28 | 6.49304 | -10.57232 | 12337 ft | 374 kts | 318° |
| 2026-04-26 12:28 | 6.51164 | -10.59084 | 12991 ft | 378 kts | 318° |
| 2026-04-26 12:28 | 6.53042 | -10.60960 | 13646 ft | 382 kts | 318° |
| 2026-04-26 12:28 | 6.54935 | -10.62855 | 14235 ft | 386 kts | 317° |
| 2026-04-26 12:29 | 6.56850 | -10.64769 | 14838 ft | 388 kts | 317° |
| 2026-04-26 12:29 | 6.58773 | -10.66690 | 15429 ft | 391 kts | 317° |
| 2026-04-26 12:29 | 6.62658 | -10.70573 | 16663 ft | 397 kts | 316° |
| 2026-04-26 12:30 | 6.64629 | -10.72544 | 17263 ft | 401 kts | 316° |
| 2026-04-26 12:30 | 6.66590 | -10.74505 | 17893 ft | 405 kts | 315° |
| 2026-04-26 12:30 | 6.68617 | -10.76531 | 18501 ft | 408 kts | 315° |
| 2026-04-26 12:31 | 6.72668 | -10.80583 | 19737 ft | 412 kts | 314° |
| 2026-04-26 12:31 | 6.74678 | -10.82594 | 20416 ft | 413 kts | 314° |
| 2026-04-26 12:31 | 6.76724 | -10.84640 | 21035 ft | 416 kts | 314° |
| 2026-04-26 12:31 | 6.78781 | -10.86699 | 21659 ft | 419 kts | 314° |
| 2026-04-26 12:32 | 6.80862 | -10.88782 | 22245 ft | 423 kts | 314° |
| 2026-04-26 12:32 | 6.82955 | -10.90876 | 22874 ft | 426 kts | 314° |
| 2026-04-26 12:32 | 6.87194 | -10.95120 | 23961 ft | 433 kts | 314° |
| 2026-04-26 12:33 | 6.89338 | -10.97266 | 24441 ft | 437 kts | 314° |
| 2026-04-26 12:33 | 6.91500 | -10.99432 | 24972 ft | 439 kts | 314° |
| 2026-04-26 12:33 | 6.93674 | -11.01610 | 25460 ft | 443 kts | 314° |
| 2026-04-26 12:33 | 6.95867 | -11.03805 | 25986 ft | 445 kts | 314° |
| 2026-04-26 12:34 | 6.98074 | -11.06016 | 26405 ft | 451 kts | 314° |
| 2026-04-26 12:34 | 7.00303 | -11.08250 | 26918 ft | 453 kts | 314° |
| 2026-04-26 12:34 | 7.02549 | -11.10501 | 27382 ft | 458 kts | 315° |
| 2026-04-26 12:34 | 7.04813 | -11.12769 | 27829 ft | 462 kts | 315° |
| 2026-04-26 12:35 | 7.07102 | -11.15064 | 28312 ft | 465 kts | 315° |
| 2026-04-26 12:35 | 7.09403 | -11.17371 | 28798 ft | 468 kts | 315° |
| 2026-04-26 12:35 | 7.11720 | -11.19694 | 29248 ft | 472 kts | 315° |
| 2026-04-26 12:35 | 7.14061 | -11.22041 | 29673 ft | 476 kts | 315° |
| 2026-04-26 12:36 | 7.16412 | -11.24400 | 30089 ft | 479 kts | 315° |
| 2026-04-26 12:36 | 7.18779 | -11.26773 | 30504 ft | 481 kts | 315° |
| 2026-04-26 12:36 | 7.21151 | -11.29154 | 30931 ft | 482 kts | 315° |
| 2026-04-26 12:36 | 7.23513 | -11.31524 | 31564 ft | 478 kts | 315° |
| 2026-04-26 12:37 | 7.25828 | -11.33848 | 32185 ft | 473 kts | 315° |
| 2026-04-26 12:37 | 7.28181 | -11.36208 | 32762 ft | 471 kts | 315° |
| 2026-04-26 12:37 | 7.30468 | -11.38504 | 33269 ft | 469 kts | 315° |
| 2026-04-26 12:37 | 7.32802 | -11.40849 | 33821 ft | 468 kts | 315° |
| 2026-04-26 12:38 | 7.35108 | -11.43164 | 34319 ft | 466 kts | 315° |
| 2026-04-26 12:38 | 7.37367 | -11.45433 | 34844 ft | 464 kts | 315° |
| 2026-04-26 12:38 | 7.39684 | -11.47760 | 35233 ft | 465 kts | 315° |
| 2026-04-26 12:38 | 7.41941 | -11.50028 | 35689 ft | 464 kts | 315° |
| 2026-04-26 12:39 | 7.44223 | -11.52321 | 36179 ft | 463 kts | 315° |
| 2026-04-26 12:39 | 7.46503 | -11.54612 | 36659 ft | 463 kts | 315° |
| 2026-04-26 12:39 | 7.48786 | -11.56908 | 37058 ft | 464 kts | 315° |
| 2026-04-26 12:39 | 7.51073 | -11.59208 | 37497 ft | 465 kts | 314° |
| 2026-04-26 12:40 | 7.53360 | -11.61506 | 37958 ft | 465 kts | 315° |
| 2026-04-26 12:40 | 7.55648 | -11.63807 | 38469 ft | 464 kts | 314° |
| 2026-04-26 12:40 | 7.57936 | -11.66107 | 38883 ft | 465 kts | 314° |
| 2026-04-26 12:40 | 7.60224 | -11.68410 | 39251 ft | 466 kts | 314° |
| 2026-04-26 12:41 | 7.62520 | -11.70721 | 39629 ft | 467 kts | 314° |
| 2026-04-26 12:41 | 7.64818 | -11.73032 | 40059 ft | 466 kts | 315° |
| 2026-04-26 12:41 | 7.67109 | -11.75337 | 40473 ft | 466 kts | 314° |
| 2026-04-26 12:41 | 7.69404 | -11.77648 | 40853 ft | 466 kts | 314° |
| 2026-04-26 12:42 | 7.71700 | -11.79960 | 41229 ft | 467 kts | 315° |
| 2026-04-26 12:42 | 7.73995 | -11.82271 | 41597 ft | 467 kts | 315° |
| 2026-04-26 12:42 | 7.76293 | -11.84585 | 41953 ft | 467 kts | 315° |
| 2026-04-26 12:42 | 7.78598 | -11.86907 | 42301 ft | 468 kts | 314° |
| 2026-04-26 12:43 | 7.80903 | -11.89229 | 42642 ft | 468 kts | 314° |
| 2026-04-26 12:43 | 7.83203 | -11.91541 | 42997 ft | 467 kts | 315° |
| 2026-04-26 12:43 | 7.85529 | -11.93838 | 43325 ft | 468 kts | 315° |
| 2026-04-26 12:43 | 7.87859 | -11.96125 | 43632 ft | 468 kts | 315° |
| 2026-04-26 12:44 | 7.90171 | -11.98417 | 43897 ft | 466 kts | 315° |
| 2026-04-26 12:44 | 7.94855 | -12.03079 | 43903 ft | 479 kts | 315° |
| 2026-04-26 12:45 | 7.99673 | -12.07845 | 43902 ft | 491 kts | 315° |
| 2026-04-26 12:45 | 8.04603 | -12.12746 | 43912 ft | 503 kts | 315° |
| 2026-04-26 12:46 | 8.09650 | -12.17750 | 43909 ft | 514 kts | 315° |
| 2026-04-26 12:46 | 8.14798 | -12.22865 | 43915 ft | 524 kts | 315° |
| 2026-04-26 12:47 | 8.19150 | -12.27186 | 43908 ft | 530 kts | 314° |
| 2026-04-26 12:47 | 8.24403 | -12.32407 | 43911 ft | 530 kts | 314° |
| 2026-04-26 12:48 | 8.29682 | -12.37654 | 43915 ft | 535 kts | 314° |
| 2026-04-26 12:48 | 8.34969 | -12.42909 | 43903 ft | 531 kts | 315° |
| 2026-04-26 12:49 | 8.40333 | -12.48037 | 43886 ft | 531 kts | 315° |
| 2026-04-26 12:49 | 8.45674 | -12.53190 | 43887 ft | 531 kts | 316° |
| 2026-04-26 12:50 | 8.51043 | -12.58314 | 43888 ft | 531 kts | 315° |
| 2026-04-26 12:50 | 8.56377 | -12.63453 | 43895 ft | 530 kts | 315° |
| 2026-04-26 12:51 | 8.61694 | -12.68543 | 43889 ft | 530 kts | 315° |
| 2026-04-26 12:51 | 8.67037 | -12.73684 | 43889 ft | 530 kts | 315° |
| 2026-04-26 12:52 | 8.72390 | -12.78821 | 43901 ft | 531 kts | 315° |
| 2026-04-26 12:52 | 8.77752 | -12.83978 | 43894 ft | 531 kts | 315° |
| 2026-04-26 12:53 | 8.83109 | -12.89128 | 43889 ft | 531 kts | 315° |
| 2026-04-26 12:53 | 8.88398 | -12.94346 | 43910 ft | 532 kts | 313° |
| 2026-04-26 12:54 | 8.93646 | -12.99614 | 43912 ft | 532 kts | 314° |
| 2026-04-26 12:54 | 8.98939 | -13.04842 | 43912 ft | 532 kts | 314° |
| 2026-04-26 12:55 | 9.04198 | -13.10111 | 43911 ft | 532 kts | 314° |
| 2026-04-26 12:55 | 9.09480 | -13.15350 | 43917 ft | 532 kts | 314° |
| 2026-04-26 12:56 | 9.14743 | -13.20612 | 43911 ft | 532 kts | 314° |
| 2026-04-26 12:56 | 9.20047 | -13.25840 | 43922 ft | 532 kts | 315° |
| 2026-04-26 12:57 | 9.25363 | -13.31037 | 43909 ft | 531 kts | 314° |
| 2026-04-26 12:57 | 9.30646 | -13.36247 | 43920 ft | 531 kts | 314° |
| 2026-04-26 12:58 | 9.38564 | -13.44024 | 43931 ft | 531 kts | 314° |
| 2026-04-26 12:58 | 9.43896 | -13.49267 | 43939 ft | 531 kts | 314° |
| 2026-04-26 12:59 | 9.49155 | -13.54441 | 43945 ft | 530 kts | 314° |
| 2026-04-26 12:59 | 9.54418 | -13.59664 | 43936 ft | 529 kts | 311° |
| 2026-04-26 13:00 | 9.58602 | -13.65713 | 43935 ft | 521 kts | 294° |
| 2026-04-26 13:00 | 9.61350 | -13.72491 | 43948 ft | 520 kts | 287° |
| 2026-04-26 13:01 | 9.64058 | -13.79291 | 43946 ft | 522 kts | 292° |
| 2026-04-26 13:01 | 9.67049 | -13.86001 | 43945 ft | 521 kts | 290° |
| 2026-04-26 13:02 | 9.69798 | -13.92775 | 43937 ft | 520 kts | 291° |
| 2026-04-26 13:02 | 9.72721 | -13.99484 | 43940 ft | 520 kts | 290° |
| 2026-04-26 13:03 | 9.75517 | -14.06239 | 43946 ft | 520 kts | 290° |
| 2026-04-26 13:03 | 9.78396 | -14.12966 | 43948 ft | 520 kts | 291° |
| 2026-04-26 13:04 | 9.81222 | -14.19718 | 43950 ft | 520 kts | 290° |
| 2026-04-26 13:04 | 9.84071 | -14.26439 | 43948 ft | 517 kts | 291° |
| 2026-04-26 13:05 | 9.86896 | -14.33160 | 43940 ft | 519 kts | 290° |
| 2026-04-26 13:05 | 9.89519 | -14.39965 | 43945 ft | 517 kts | 289° |
| 2026-04-26 13:06 | 9.92104 | -14.46730 | 43955 ft | 514 kts | 289° |
| 2026-04-26 13:06 | 9.94683 | -14.53513 | 43955 ft | 516 kts | 289° |
| 2026-04-26 13:07 | 9.97265 | -14.60289 | 43954 ft | 512 kts | 289° |
| 2026-04-26 13:07 | 9.99801 | -14.66964 | 43937 ft | 511 kts | 289° |
| 2026-04-26 13:08 | 10.02363 | -14.73702 | 43949 ft | 512 kts | 289° |
| 2026-04-26 13:08 | 10.04921 | -14.80439 | 43949 ft | 512 kts | 289° |
| 2026-04-26 13:09 | 10.07479 | -14.87180 | 43947 ft | 512 kts | 289° |
| 2026-04-26 13:09 | 10.10034 | -14.93916 | 43945 ft | 511 kts | 289° |
| 2026-04-26 13:10 | 10.12581 | -15.00636 | 43958 ft | 511 kts | 289° |
| 2026-04-26 13:10 | 10.15129 | -15.07366 | 43955 ft | 511 kts | 289° |
| 2026-04-26 13:11 | 10.17676 | -15.14095 | 43942 ft | 511 kts | 289° |
| 2026-04-26 13:11 | 10.20223 | -15.20831 | 43948 ft | 511 kts | 289° |
| 2026-04-26 13:12 | 10.22763 | -15.27549 | 43949 ft | 508 kts | 289° |
| 2026-04-26 13:12 | 10.25278 | -15.34211 | 43955 ft | 509 kts | 289° |
| 2026-04-26 13:13 | 10.27812 | -15.40924 | 43959 ft | 509 kts | 289° |
| 2026-04-26 13:13 | 10.30343 | -15.47637 | 43959 ft | 509 kts | 289° |
| 2026-04-26 13:14 | 10.32874 | -15.54352 | 43959 ft | 509 kts | 289° |
| 2026-04-26 13:14 | 10.36222 | -15.60679 | 43933 ft | 514 kts | 304° |
| 2026-04-26 13:15 | 10.41256 | -15.65868 | 43949 ft | 518 kts | 318° |
| 2026-04-26 13:15 | 10.45976 | -15.69712 | 43961 ft | 519 kts | 319° |
| 2026-04-26 13:16 | 10.52163 | -15.75440 | 43959 ft | 517 kts | 315° |
| 2026-04-26 13:16 | 10.57630 | -15.80206 | 43962 ft | 518 kts | 317° |
| 2026-04-26 13:17 | 10.65697 | -15.87519 | 43949 ft | 518 kts | 317° |
| 2026-04-26 13:18 | 10.73817 | -15.94766 | 43950 ft | 518 kts | 316° |
| 2026-04-26 13:19 | 10.81920 | -16.02026 | 43954 ft | 515 kts | 316° |
| 2026-04-26 13:19 | 10.87286 | -16.06865 | 43960 ft | 516 kts | 316° |
| 2026-04-26 13:20 | 10.92663 | -16.11685 | 43956 ft | 514 kts | 316° |
| 2026-04-26 13:20 | 10.98026 | -16.16513 | 43955 ft | 515 kts | 316° |
| 2026-04-26 13:21 | 11.03361 | -16.21308 | 43957 ft | 515 kts | 316° |
| 2026-04-26 13:21 | 11.08722 | -16.26135 | 43958 ft | 515 kts | 316° |
| 2026-04-26 13:22 | 11.14085 | -16.30963 | 43959 ft | 515 kts | 316° |
| 2026-04-26 13:22 | 11.19451 | -16.35798 | 43952 ft | 514 kts | 316° |
| 2026-04-26 13:23 | 11.24799 | -16.40617 | 43959 ft | 513 kts | 316° |
| 2026-04-26 13:23 | 11.30144 | -16.45438 | 43963 ft | 513 kts | 316° |
| 2026-04-26 13:24 | 11.35485 | -16.50256 | 43966 ft | 513 kts | 316° |
| 2026-04-26 13:24 | 11.40829 | -16.55081 | 43960 ft | 513 kts | 316° |
| 2026-04-26 13:25 | 11.46172 | -16.59907 | 43968 ft | 513 kts | 316° |
| 2026-04-26 13:25 | 11.51519 | -16.64738 | 43969 ft | 513 kts | 316° |
| 2026-04-26 13:26 | 11.56860 | -16.69567 | 43953 ft | 512 kts | 316° |
| 2026-04-26 13:26 | 11.62177 | -16.74378 | 43960 ft | 512 kts | 316° |
| 2026-04-26 13:27 | 11.67501 | -16.79196 | 43959 ft | 511 kts | 316° |
| 2026-04-26 13:27 | 11.72790 | -16.83986 | 43960 ft | 511 kts | 316° |
| 2026-04-26 13:28 | 11.78146 | -16.88839 | 43964 ft | 512 kts | 316° |
| 2026-04-26 13:28 | 11.83428 | -16.93628 | 43966 ft | 512 kts | 316° |
| 2026-04-26 13:29 | 11.88753 | -16.98458 | 43972 ft | 511 kts | 316° |
| 2026-04-26 13:29 | 11.94065 | -17.03278 | 43971 ft | 511 kts | 316° |
| 2026-04-26 13:30 | 11.99362 | -17.08089 | 43966 ft | 508 kts | 316° |
| 2026-04-26 13:30 | 12.04640 | -17.12885 | 43967 ft | 509 kts | 316° |
| 2026-04-26 13:31 | 12.09931 | -17.17693 | 43965 ft | 509 kts | 316° |
| 2026-04-26 13:31 | 12.15218 | -17.22503 | 43969 ft | 509 kts | 316° |
| 2026-04-26 13:32 | 12.20505 | -17.27314 | 43970 ft | 509 kts | 316° |
| 2026-04-26 13:32 | 12.25769 | -17.32106 | 43963 ft | 504 kts | 315° |
| 2026-04-26 13:33 | 12.31014 | -17.36887 | 43970 ft | 506 kts | 315° |
| 2026-04-26 13:33 | 12.36233 | -17.41644 | 43970 ft | 504 kts | 315° |
| 2026-04-26 13:34 | 12.41458 | -17.46411 | 43968 ft | 504 kts | 315° |
| 2026-04-26 13:34 | 12.46698 | -17.51193 | 43964 ft | 504 kts | 315° |
| 2026-04-26 13:35 | 12.51931 | -17.55972 | 43965 ft | 504 kts | 315° |
| 2026-04-26 13:35 | 12.56312 | -17.59974 | 43964 ft | 502 kts | 315° |
| 2026-04-26 13:36 | 12.61523 | -17.64740 | 43963 ft | 503 kts | 315° |
| 2026-04-26 13:36 | 12.66743 | -17.69513 | 43964 ft | 503 kts | 315° |
| 2026-04-26 13:37 | 12.71958 | -17.74286 | 43967 ft | 503 kts | 315° |
| 2026-04-26 13:37 | 12.77170 | -17.79059 | 43960 ft | 502 kts | 315° |
| 2026-04-26 13:38 | 12.82344 | -17.83799 | 43960 ft | 502 kts | 315° |
| 2026-04-26 13:38 | 12.87557 | -17.88580 | 43970 ft | 502 kts | 315° |
| 2026-04-26 13:39 | 12.92766 | -17.93357 | 43968 ft | 502 kts | 315° |
| 2026-04-26 13:39 | 12.97968 | -17.98132 | 43969 ft | 502 kts | 315° |
| 2026-04-26 13:40 | 13.02648 | -18.03367 | 43961 ft | 497 kts | 305° |
| 2026-04-26 13:40 | 13.06931 | -18.08939 | 43972 ft | 497 kts | 306° |
| 2026-04-26 13:41 | 13.11267 | -18.14476 | 43974 ft | 498 kts | 305° |
| 2026-04-26 13:41 | 13.15564 | -18.20041 | 43963 ft | 497 kts | 305° |
| 2026-04-26 13:42 | 13.19879 | -18.25583 | 43973 ft | 495 kts | 305° |
| 2026-04-26 13:42 | 13.24152 | -18.31106 | 43970 ft | 495 kts | 305° |
| 2026-04-26 13:43 | 13.28442 | -18.36637 | 43965 ft | 495 kts | 305° |
| 2026-04-26 13:43 | 13.32735 | -18.42183 | 43964 ft | 495 kts | 305° |
| 2026-04-26 13:44 | 13.37001 | -18.47724 | 43970 ft | 495 kts | 305° |
| 2026-04-26 13:44 | 13.41260 | -18.53281 | 43967 ft | 495 kts | 305° |
| 2026-04-26 13:45 | 13.45527 | -18.58835 | 43968 ft | 495 kts | 305° |
| 2026-04-26 13:45 | 13.49752 | -18.64349 | 43968 ft | 495 kts | 305° |
| 2026-04-26 13:46 | 13.53983 | -18.69866 | 43964 ft | 490 kts | 305° |
| 2026-04-26 13:46 | 13.58203 | -18.75380 | 43964 ft | 492 kts | 305° |
| 2026-04-26 13:47 | 13.62436 | -18.80908 | 43965 ft | 491 kts | 305° |
| 2026-04-26 13:47 | 13.66664 | -18.86436 | 43967 ft | 491 kts | 305° |
| 2026-04-26 13:48 | 13.70885 | -18.91958 | 43967 ft | 491 kts | 305° |
| 2026-04-26 13:48 | 13.75107 | -18.97484 | 43967 ft | 491 kts | 305° |
| 2026-04-26 13:49 | 13.79325 | -19.03011 | 43967 ft | 491 kts | 305° |
| 2026-04-26 13:49 | 13.83545 | -19.08542 | 43968 ft | 491 kts | 305° |
| 2026-04-26 13:50 | 13.87762 | -19.14073 | 43968 ft | 491 kts | 305° |
| 2026-04-26 13:50 | 13.91971 | -19.19597 | 43968 ft | 491 kts | 305° |
| 2026-04-26 13:51 | 13.96183 | -19.25129 | 43969 ft | 491 kts | 305° |
| 2026-04-26 13:51 | 14.00390 | -19.30659 | 43969 ft | 491 kts | 305° |
| 2026-04-26 13:52 | 14.04597 | -19.36191 | 43968 ft | 491 kts | 305° |
| 2026-04-26 13:52 | 14.08804 | -19.41727 | 43974 ft | 490 kts | 305° |
| 2026-04-26 13:53 | 14.12971 | -19.47213 | 43971 ft | 484 kts | 305° |
| 2026-04-26 13:53 | 14.17108 | -19.52667 | 43965 ft | 484 kts | 305° |
| 2026-04-26 13:54 | 14.21264 | -19.58146 | 43967 ft | 485 kts | 305° |
| 2026-04-26 13:54 | 14.25415 | -19.63624 | 43967 ft | 485 kts | 305° |
| 2026-04-26 13:55 | 14.30934 | -19.70912 | 43970 ft | 485 kts | 305° |
| 2026-04-26 13:56 | 14.37854 | -19.80060 | 43968 ft | 484 kts | 305° |
| 2026-04-26 13:56 | 14.41995 | -19.85537 | 43985 ft | 484 kts | 304° |
| 2026-04-26 13:57 | 14.46116 | -19.90993 | 43976 ft | 481 kts | 304° |
| 2026-04-26 13:57 | 14.50235 | -19.96451 | 43979 ft | 482 kts | 305° |
| 2026-04-26 13:58 | 14.54356 | -20.01914 | 43979 ft | 482 kts | 304° |
| 2026-04-26 13:58 | 14.58474 | -20.07378 | 43982 ft | 482 kts | 304° |
| 2026-04-26 13:59 | 14.62562 | -20.12804 | 43982 ft | 482 kts | 304° |
| 2026-04-26 13:59 | 14.66677 | -20.18271 | 43979 ft | 482 kts | 305° |
| 2026-04-26 14:00 | 14.74951 | -20.29165 | 43984 ft | 480 kts | 305° |
| 2026-04-26 14:01 | 14.79069 | -20.34602 | 43984 ft | 481 kts | 305° |
| 2026-04-26 14:01 | 14.83205 | -20.40036 | 43983 ft | 481 kts | 305° |
| 2026-04-26 14:02 | 14.87334 | -20.45481 | 43986 ft | 481 kts | 305° |
| 2026-04-26 14:02 | 14.91438 | -20.50888 | 43990 ft | 480 kts | 305° |
| 2026-04-26 14:03 | 14.95558 | -20.56324 | 43990 ft | 481 kts | 305° |
| 2026-04-26 14:03 | 14.99708 | -20.61801 | 43990 ft | 481 kts | 305° |
| 2026-04-26 14:04 | 15.03797 | -20.67202 | 43984 ft | 477 kts | 305° |
| 2026-04-26 14:04 | 15.07894 | -20.72619 | 43993 ft | 478 kts | 305° |
| 2026-04-26 14:05 | 15.11998 | -20.78047 | 43992 ft | 479 kts | 305° |
| 2026-04-26 14:05 | 15.16101 | -20.83478 | 43994 ft | 479 kts | 305° |
| 2026-04-26 14:06 | 15.20199 | -20.88907 | 43993 ft | 479 kts | 305° |
| 2026-04-26 14:06 | 15.24302 | -20.94347 | 43993 ft | 479 kts | 305° |
| 2026-04-26 14:07 | 15.28403 | -20.99787 | 43997 ft | 479 kts | 305° |
| 2026-04-26 14:07 | 15.32460 | -21.05168 | 43334 ft | 462 kts | 305° |
| 2026-04-26 14:07 | 15.34410 | -21.07756 | 42737 ft | 449 kts | 305° |
| 2026-04-26 14:08 | 15.36297 | -21.10265 | 42149 ft | 436 kts | 305° |
| 2026-04-26 14:08 | 15.38140 | -21.12715 | 41581 ft | 424 kts | 305° |
| 2026-04-26 14:08 | 15.39931 | -21.15097 | 41033 ft | 414 kts | 305° |
| 2026-04-26 14:08 | 15.41688 | -21.17434 | 40498 ft | 409 kts | 305° |
| 2026-04-26 14:09 | 15.43437 | -21.19764 | 39961 ft | 409 kts | 305° |
| 2026-04-26 14:09 | 15.45196 | -21.22106 | 39422 ft | 415 kts | 305° |
| 2026-04-26 14:09 | 15.46982 | -21.24484 | 38874 ft | 420 kts | 305° |
| 2026-04-26 14:09 | 15.48786 | -21.26883 | 38277 ft | 423 kts | 305° |
| 2026-04-26 14:10 | 15.50595 | -21.29292 | 37722 ft | 424 kts | 305° |
| 2026-04-26 14:10 | 15.52404 | -21.31704 | 37164 ft | 426 kts | 306° |
| 2026-04-26 14:10 | 15.54232 | -21.34140 | 36599 ft | 427 kts | 306° |
| 2026-04-26 14:10 | 15.56059 | -21.36576 | 36037 ft | 429 kts | 306° |
| 2026-04-26 14:11 | 15.59713 | -21.41450 | 34908 ft | 432 kts | 306° |
| 2026-04-26 14:11 | 15.61558 | -21.43911 | 34338 ft | 431 kts | 306° |
| 2026-04-26 14:11 | 15.63395 | -21.46363 | 33768 ft | 430 kts | 306° |
| 2026-04-26 14:12 | 15.65232 | -21.48818 | 33196 ft | 432 kts | 306° |
| 2026-04-26 14:12 | 15.67081 | -21.51289 | 32627 ft | 434 kts | 306° |
| 2026-04-26 14:12 | 15.68935 | -21.53766 | 32047 ft | 435 kts | 306° |
| 2026-04-26 14:12 | 15.70791 | -21.56246 | 31471 ft | 435 kts | 306° |
| 2026-04-26 14:13 | 15.74512 | -21.61224 | 30319 ft | 437 kts | 307° |
| 2026-04-26 14:13 | 15.76363 | -21.63699 | 29705 ft | 430 kts | 307° |
| 2026-04-26 14:13 | 15.78189 | -21.66142 | 29143 ft | 427 kts | 307° |
| 2026-04-26 14:14 | 15.80005 | -21.68575 | 28591 ft | 425 kts | 307° |
| 2026-04-26 14:14 | 15.81805 | -21.70986 | 28032 ft | 422 kts | 307° |
| 2026-04-26 14:14 | 15.83604 | -21.73397 | 27482 ft | 420 kts | 307° |
| 2026-04-26 14:14 | 15.85387 | -21.75787 | 26930 ft | 417 kts | 307° |
| 2026-04-26 14:15 | 15.86925 | -21.78312 | 26378 ft | 413 kts | 297° |
| 2026-04-26 14:15 | 15.88224 | -21.80973 | 25851 ft | 413 kts | 297° |
| 2026-04-26 14:15 | 15.89547 | -21.83616 | 25319 ft | 410 kts | 298° |
| 2026-04-26 14:15 | 15.90867 | -21.86217 | 24775 ft | 405 kts | 298° |
| 2026-04-26 14:16 | 15.92164 | -21.88807 | 24248 ft | 403 kts | 298° |
| 2026-04-26 14:16 | 15.93446 | -21.91392 | 23719 ft | 401 kts | 297° |
| 2026-04-26 14:16 | 15.94728 | -21.93965 | 23143 ft | 398 kts | 298° |
| 2026-04-26 14:16 | 15.95987 | -21.96476 | 22636 ft | 396 kts | 298° |
| 2026-04-26 14:17 | 15.97253 | -21.99008 | 22112 ft | 393 kts | 297° |
| 2026-04-26 14:17 | 15.98505 | -22.01522 | 21602 ft | 391 kts | 297° |
| 2026-04-26 14:17 | 15.99751 | -22.04023 | 21086 ft | 388 kts | 297° |
| 2026-04-26 14:17 | 16.00990 | -22.06506 | 20582 ft | 386 kts | 297° |
| 2026-04-26 14:18 | 16.02219 | -22.08972 | 20077 ft | 383 kts | 297° |
| 2026-04-26 14:18 | 16.03444 | -22.11431 | 19572 ft | 381 kts | 296° |
| 2026-04-26 14:18 | 16.04656 | -22.13866 | 19076 ft | 379 kts | 296° |
| 2026-04-26 14:18 | 16.05862 | -22.16288 | 18580 ft | 376 kts | 296° |
| 2026-04-26 14:19 | 16.07063 | -22.18701 | 18057 ft | 374 kts | 296° |
| 2026-04-26 14:19 | 16.08250 | -22.21087 | 17563 ft | 371 kts | 296° |
| 2026-04-26 14:19 | 16.09431 | -22.23463 | 17076 ft | 369 kts | 296° |
| 2026-04-26 14:19 | 16.10604 | -22.25822 | 16596 ft | 366 kts | 296° |
| 2026-04-26 14:20 | 16.11773 | -22.28173 | 16113 ft | 364 kts | 296° |
| 2026-04-26 14:20 | 16.12932 | -22.30507 | 15636 ft | 362 kts | 296° |
| 2026-04-26 14:20 | 16.13696 | -22.32044 | 15322 ft | 361 kts | 296° |
| 2026-04-26 14:20 | 16.14843 | -22.34356 | 14853 ft | 359 kts | 296° |
| 2026-04-26 14:21 | 16.16372 | -22.37438 | 14228 ft | 357 kts | 295° |
| 2026-04-26 14:21 | 16.17124 | -22.38950 | 13916 ft | 355 kts | 295° |
| 2026-04-26 14:21 | 16.18254 | -22.41225 | 13411 ft | 352 kts | 295° |
| 2026-04-26 14:21 | 16.19373 | -22.43484 | 12951 ft | 349 kts | 295° |
| 2026-04-26 14:22 | 16.20484 | -22.45727 | 12494 ft | 347 kts | 295° |
| 2026-04-26 14:22 | 16.21587 | -22.47953 | 12030 ft | 345 kts | 295° |
| 2026-04-26 14:22 | 16.22682 | -22.50163 | 11587 ft | 343 kts | 295° |
| 2026-04-26 14:22 | 16.23764 | -22.52344 | 11141 ft | 331 kts | 294° |
| 2026-04-26 14:23 | 16.24782 | -22.54393 | 10724 ft | 308 kts | 294° |
| 2026-04-26 14:23 | 16.25734 | -22.56317 | 10331 ft | 290 kts | 294° |
| 2026-04-26 14:23 | 16.26634 | -22.58139 | 9965 ft | 278 kts | 293° |
| 2026-04-26 14:23 | 16.27508 | -22.59912 | 9588 ft | 273 kts | 293° |
| 2026-04-26 14:24 | 16.28371 | -22.61659 | 9233 ft | 271 kts | 294° |
| 2026-04-26 14:24 | 16.29232 | -22.63402 | 8879 ft | 270 kts | 294° |
| 2026-04-26 14:24 | 16.30091 | -22.65138 | 8524 ft | 270 kts | 294° |
| 2026-04-26 14:24 | 16.30936 | -22.66849 | 8176 ft | 269 kts | 294° |
| 2026-04-26 14:25 | 16.31790 | -22.68577 | 7820 ft | 268 kts | 294° |
| 2026-04-26 14:25 | 16.32653 | -22.70323 | 7465 ft | 267 kts | 294° |
| 2026-04-26 14:25 | 16.33486 | -22.72009 | 7122 ft | 265 kts | 294° |
| 2026-04-26 14:25 | 16.34326 | -22.73711 | 6780 ft | 264 kts | 295° |
| 2026-04-26 14:26 | 16.35161 | -22.75405 | 6426 ft | 263 kts | 295° |
| 2026-04-26 14:26 | 16.35994 | -22.77094 | 6069 ft | 262 kts | 295° |
| 2026-04-26 14:26 | 16.36824 | -22.78775 | 5717 ft | 261 kts | 296° |
| 2026-04-26 14:26 | 16.37656 | -22.80461 | 5359 ft | 262 kts | 296° |
| 2026-04-26 14:27 | 16.38487 | -22.82147 | 5015 ft | 262 kts | 297° |
| 2026-04-26 14:27 | 16.39319 | -22.83834 | 4667 ft | 261 kts | 297° |
| 2026-04-26 14:27 | 16.40140 | -22.85501 | 4307 ft | 256 kts | 298° |
| 2026-04-26 14:27 | 16.40952 | -22.87152 | 3978 ft | 259 kts | 299° |
| 2026-04-26 14:28 | 16.41787 | -22.88844 | 3638 ft | 263 kts | 300° |
| 2026-04-26 14:28 | 16.42604 | -22.90504 | 3299 ft | 252 kts | 300° |
| 2026-04-26 14:28 | 16.43393 | -22.92109 | 2960 ft | 243 kts | 301° |
| 2026-04-26 14:28 | 16.44267 | -22.93570 | 2598 ft | 234 kts | 317° |
| 2026-04-26 14:29 | 16.45576 | -22.94449 | 2479 ft | 215 kts | 342° |
| 2026-04-26 14:29 | 16.47033 | -22.94709 | 2499 ft | 217 kts | 1° |
| 2026-04-26 14:29 | 16.48563 | -22.94712 | 2525 ft | 222 kts | 1° |
| 2026-04-26 14:29 | 16.50124 | -22.94730 | 2510 ft | 224 kts | 1° |
| 2026-04-26 14:30 | 16.51673 | -22.94745 | 2515 ft | 223 kts | 1° |
| 2026-04-26 14:30 | 16.53204 | -22.94755 | 2321 ft | 217 kts | 2° |
| 2026-04-26 14:30 | 16.54778 | -22.94763 | 1994 ft | 229 kts | 1° |
| 2026-04-26 14:30 | 16.56263 | -22.94775 | 1974 ft | 197 kts | 1° |
| 2026-04-26 14:31 | 16.57505 | -22.94786 | 1980 ft | 167 kts | 2° |
| 2026-04-26 14:31 | 16.58627 | -22.94795 | 1987 ft | 159 kts | 2° |
| 2026-04-26 14:31 | 16.59747 | -22.94800 | 1991 ft | 162 kts | 2° |
| 2026-04-26 14:31 | 16.60877 | -22.94808 | 1993 ft | 162 kts | 1° |
| 2026-04-26 14:32 | 16.61985 | -22.94816 | 1997 ft | 155 kts | 2° |
| 2026-04-26 14:32 | 16.63065 | -22.94822 | 1993 ft | 156 kts | 1° |
| 2026-04-26 14:32 | 16.64202 | -22.94829 | 1768 ft | 165 kts | 2° |
| 2026-04-26 14:32 | 16.65300 | -22.94839 | 1547 ft | 148 kts | 2° |
| 2026-04-26 14:33 | 16.66218 | -22.94867 | 1360 ft | 120 kts | 359° |
| 2026-04-26 14:33 | 16.67033 | -22.94894 | 1106 ft | 119 kts | 0° |
| 2026-04-26 14:33 | 16.67844 | -22.94881 | 1010 ft | 113 kts | 3° |
| 2026-04-26 14:33 | 16.68638 | -22.94901 | 912 ft | 117 kts | 0° |
| 2026-04-26 14:34 | 16.69433 | -22.94936 | 785 ft | 111 kts | 5° |
| 2026-04-26 14:34 | 16.70197 | -22.94921 | 623 ft | 109 kts | 7° |
| 2026-04-26 14:34 | 16.70954 | -22.94871 | 463 ft | 111 kts | 2° |
| 2026-04-26 14:34 | 16.71775 | -22.94891 | 323 ft | 120 kts | 5° |
| 2026-04-26 14:35 | 16.72590 | -22.94889 | 194 ft | 110 kts | 5° |
| 2026-04-26 14:35 | 16.73194 | -22.94889 | 187 ft | 50 kts | 0° |
| 2026-04-26 14:35 | 16.73474 | -22.94892 | 189 ft | 42 kts | 360° |
| 2026-04-26 14:35 | 16.73778 | -22.94894 | 184 ft | 45 kts | 359° |
| 2026-04-26 14:36 | 16.74100 | -22.94897 | 182 ft | 35 kts | 359° |
| 2026-04-26 14:36 | 16.74199 | -22.94898 | 182 ft | 11 kts | 6° |
| 2026-04-26 14:36 | 16.74228 | -22.94863 | 182 ft | 5 kts | 58° |
| 2026-04-26 14:36 | 16.74247 | -22.94832 | 182 ft | 5 kts | 59° |
| 2026-04-26 14:37 | 16.74276 | -22.94782 | 182 ft | 9 kts | 58° |
| 2026-04-26 14:37 | 16.74300 | -22.94725 | 181 ft | 7 kts | 91° |
| 2026-04-26 14:37 | 16.74241 | -22.94699 | 181 ft | 12 kts | 180° |
| 2026-04-26 14:37 | 16.74158 | -22.94699 | 182 ft | 12 kts | 180° |
| 2026-04-26 14:38 | 16.74062 | -22.94698 | 182 ft | 15 kts | 179° |
| 2026-04-26 14:38 | 16.73963 | -22.94697 | 187 ft | 12 kts | 179° |
| 2026-04-26 14:38 | 16.73895 | -22.94697 | 196 ft | 13 kts | 180° |
| 2026-04-26 14:38 | 16.73758 | -22.94696 | 196 ft | 19 kts | 179° |
| 2026-04-26 14:39 | 16.73676 | -22.94696 | 196 ft | 7 kts | 180° |
| 2026-04-26 14:39 | 16.73627 | -22.94681 | 197 ft | 11 kts | 137° |
| 2026-04-26 14:39 | 16.73613 | -22.94647 | 203 ft | 2 kts | 97° |
| 2026-04-26 14:39 | 16.73610 | -22.94629 | 199 ft | 2 kts | 97° |
| 2026-04-26 14:40 | 16.73596 | -22.94605 | 202 ft | 5 kts | 129° |
| 2026-04-26 14:40 | 16.73553 | -22.94585 | 202 ft | 9 kts | 123° |
| 2026-04-26 14:40 | 16.73561 | -22.94544 | 202 ft | 4 kts | 89° |
| 2026-04-26 14:40 | 16.73560 | -22.94505 | 197 ft | 3 kts | 90° |
| 2026-04-26 14:41 | 16.73560 | -22.94500 | 197 ft | 0 kts | 90° |